首页
METAR-TAF:

METAR-TAF

机场 :

奥斯滕德, 比利时

纬度: 51-12N, 经度: 002-52E, 海拔: 4米

当前天气观测

该预报发布于39分钟前的20:50 UTC
风速18节,风向西南
温度 10°C
湿度 93%
气压 1001 hPa
能見度: 7000
散云层高于1500英尺
多云层高于2600英尺
小阵雨

METAR: EBOS 062050Z 23018KT 7000 -SHRA SCT015 BKN026 10/09 Q1001 TEMPO 4000 SHRA BKN014

时间: 23:29 (21:29 UTC)

预报

该预报发布于4小时和19分钟前的17:10 UTC
预报有效从06日的 18点(UTC)到 07日的 24点(UTC)
风速18节,风向西南,有时为28节阵风
能见度10公里或以上
多云层高于4000英尺
短暂存在
从 06日的 18点(UTC)到 06日的 23点(UTC)
能見度: 4000
多云层高于1400英尺, 积雨云.
阵雨
成为
从 06日的 22点(UTC)到 06日的 24点(UTC)
风速14节,风向西
几率 40%
从 07日的 21点(UTC)到 07日的 24点(UTC)
多云层高于1400英尺
成为
从 07日的 22点(UTC)到 07日的 24点(UTC)
风速15节,风向北转西北

TAF: EBOS 061710Z 0618/0724 23018G28KT 9999 BKN040 TEMPO 0618/0623 4000 SHRA BKN014CB BECMG 0622/0624 28014KT PROB40 0721/0724 BKN014 BECMG 0722/0724 34015KT

超过4000个机场的气象观测和天气预报(METAR&TAF报告)。

可查询的气象台以黄色和红色小点在地图上表示。

将鼠标移到小点上方,可查看气象台名称。

然后点击查看天气观测和预报。

如需切换地图:点击带黑十字的绿色按钮放大地图;点击带横线的绿色按钮缩小地图;或者点击绿色箭头查看邻近地区的地图。


METAR-TAF: